sensor_id;sensor_type;location;lat;lon;timestamp;pressure;altitude;pressure_sealevel;temperature;humidity
52591;BME280;38483;42.620;25.394;2023-03-20T00:01:24;97402.09;;;8.01;71.82
52591;BME280;38483;42.620;25.394;2023-03-20T00:04:43;97399.78;;;7.92;72.11
52591;BME280;38483;42.620;25.394;2023-03-20T00:08:04;97384.91;;;7.73;72.63
52591;BME280;38483;42.620;25.394;2023-03-20T00:14:26;97401.63;;;7.87;72.60
52591;BME280;38483;42.620;25.394;2023-03-20T00:17:46;97383.78;;;7.81;72.54
52591;BME280;38483;42.620;25.394;2023-03-20T00:21:16;97365.38;;;7.64;71.91
52591;BME280;38483;42.620;25.394;2023-03-20T00:24:52;97382.47;;;7.68;72.90
52591;BME280;38483;42.620;25.394;2023-03-20T00:31:36;97374.31;;;7.53;71.93
52591;BME280;38483;42.620;25.394;2023-03-20T00:34:56;97370.63;;;7.61;72.68
52591;BME280;38483;42.620;25.394;2023-03-20T00:38:17;97373.78;;;7.42;72.17
52591;BME280;38483;42.620;25.394;2023-03-20T00:42:13;97376.44;;;7.38;72.91
52591;BME280;38483;42.620;25.394;2023-03-20T00:45:14;97368.66;;;7.40;72.20
52591;BME280;38483;42.620;25.394;2023-03-20T00:48:33;97366.69;;;7.17;71.72
52591;BME280;38483;42.620;25.394;2023-03-20T00:51:55;97365.44;;;6.69;74.20
52591;BME280;38483;42.620;25.394;2023-03-20T00:55:16;97346.38;;;6.42;76.00
52591;BME280;38483;42.620;25.394;2023-03-20T00:58:36;97359.16;;;6.10;78.14
52591;BME280;38483;42.620;25.394;2023-03-20T01:01:57;97340.81;;;5.89;78.75
52591;BME280;38483;42.620;25.394;2023-03-20T01:05:19;97340.09;;;5.81;79.56
52591;BME280;38483;42.620;25.394;2023-03-20T01:08:39;97333.41;;;5.73;81.36
52591;BME280;38483;42.620;25.394;2023-03-20T01:11:59;97335.28;;;5.65;80.50
52591;BME280;38483;42.620;25.394;2023-03-20T01:15:21;97329.66;;;5.50;81.58
52591;BME280;38483;42.620;25.394;2023-03-20T01:18:41;97330.47;;;5.52;80.96
52591;BME280;38483;42.620;25.394;2023-03-20T01:22:01;97321.00;;;5.54;81.62
52591;BME280;38483;42.620;25.394;2023-03-20T01:25:22;97317.91;;;5.40;82.08
52591;BME280;38483;42.620;25.394;2023-03-20T01:28:43;97308.31;;;5.46;82.35
52591;BME280;38483;42.620;25.394;2023-03-20T01:32:04;97308.84;;;5.62;81.87
52591;BME280;38483;42.620;25.394;2023-03-20T01:35:25;97313.44;;;5.86;80.74
52591;BME280;38483;42.620;25.394;2023-03-20T01:38:45;97310.25;;;6.13;79.22
52591;BME280;38483;42.620;25.394;2023-03-20T01:42:07;97301.75;;;6.43;78.45
52591;BME280;38483;42.620;25.394;2023-03-20T01:45:34;97289.97;;;6.36;77.71
52591;BME280;38483;42.620;25.394;2023-03-20T01:51:50;97304.16;;;6.49;75.55
52591;BME280;38483;42.620;25.394;2023-03-20T01:55:10;97290.94;;;6.31;77.89
52591;BME280;38483;42.620;25.394;2023-03-20T01:58:33;97303.84;;;6.29;77.32
52591;BME280;38483;42.620;25.394;2023-03-20T02:01:52;97303.78;;;6.32;76.73
52591;BME280;38483;42.620;25.394;2023-03-20T02:05:14;97311.25;;;6.06;76.96
52591;BME280;38483;42.620;25.394;2023-03-20T02:11:24;97301.31;;;5.53;78.75
52591;BME280;38483;42.620;25.394;2023-03-20T02:14:45;97293.44;;;5.22;80.37
52591;BME280;38483;42.620;25.394;2023-03-20T02:18:33;97298.84;;;5.09;82.51
52591;BME280;38483;42.620;25.394;2023-03-20T02:43:18;97295.34;;;5.13;84.66
52591;BME280;38483;42.620;25.394;2023-03-20T03:02:13;97274.56;;;4.83;85.83
52591;BME280;38483;42.620;25.394;2023-03-20T03:05:35;97276.38;;;4.77;85.82
52591;BME280;38483;42.620;25.394;2023-03-20T03:08:54;97267.41;;;4.97;86.24
52591;BME280;38483;42.620;25.394;2023-03-20T03:12:18;97272.38;;;5.07;85.38
52591;BME280;38483;42.620;25.394;2023-03-20T03:15:37;97272.03;;;5.22;84.56
52591;BME280;38483;42.620;25.394;2023-03-20T03:19:10;97260.88;;;5.24;85.42
52591;BME280;38483;42.620;25.394;2023-03-20T03:22:29;97209.38;;;4.92;85.83
52591;BME280;38483;42.620;25.394;2023-03-20T03:25:53;97260.28;;;5.12;86.03
52591;BME280;38483;42.620;25.394;2023-03-20T03:29:16;97271.53;;;5.46;83.93
52591;BME280;38483;42.620;25.394;2023-03-20T03:32:44;97249.16;;;5.51;82.81
52591;BME280;38483;42.620;25.394;2023-03-20T03:39:23;97258.78;;;5.41;83.07
52591;BME280;38483;42.620;25.394;2023-03-20T03:42:56;97257.75;;;5.50;82.45
52591;BME280;38483;42.620;25.394;2023-03-20T03:46:18;97253.13;;;5.27;82.01
52591;BME280;38483;42.620;25.394;2023-03-20T03:49:38;97253.78;;;5.35;82.39
52591;BME280;38483;42.620;25.394;2023-03-20T03:52:58;97265.59;;;5.42;82.20
52591;BME280;38483;42.620;25.394;2023-03-20T03:56:19;97253.69;;;5.40;81.51
52591;BME280;38483;42.620;25.394;2023-03-20T03:59:40;97259.31;;;5.55;80.03
52591;BME280;38483;42.620;25.394;2023-03-20T04:03:03;97253.94;;;5.29;80.18
52591;BME280;38483;42.620;25.394;2023-03-20T04:06:23;97253.22;;;5.23;81.04
52591;BME280;38483;42.620;25.394;2023-03-20T04:09:46;97258.34;;;5.23;80.89
52591;BME280;38483;42.620;25.394;2023-03-20T04:13:07;97251.22;;;5.34;79.56
52591;BME280;38483;42.620;25.394;2023-03-20T04:16:28;97252.44;;;5.18;79.80
52591;BME280;38483;42.620;25.394;2023-03-20T04:19:51;97257.34;;;4.88;81.64
52591;BME280;38483;42.620;25.394;2023-03-20T04:23:12;97254.31;;;4.68;82.19
52591;BME280;38483;42.620;25.394;2023-03-20T04:26:33;97265.50;;;4.64;82.75
52591;BME280;38483;42.620;25.394;2023-03-20T04:29:56;97272.03;;;4.80;83.10
52591;BME280;38483;42.620;25.394;2023-03-20T04:33:55;97278.78;;;4.84;82.00
52591;BME280;38483;42.620;25.394;2023-03-20T04:37:25;97276.53;;;4.69;82.48
52591;BME280;38483;42.620;25.394;2023-03-20T04:40:49;97277.53;;;4.62;83.67
52591;BME280;38483;42.620;25.394;2023-03-20T04:44:14;97279.41;;;4.53;84.72
52591;BME280;38483;42.620;25.394;2023-03-20T04:47:36;97281.13;;;4.52;85.00
52591;BME280;38483;42.620;25.394;2023-03-20T04:50:57;97285.19;;;4.65;84.72
52591;BME280;38483;42.620;25.394;2023-03-20T04:54:19;97293.25;;;4.88;83.48
52591;BME280;38483;42.620;25.394;2023-03-20T04:57:39;97295.19;;;5.20;81.57
52591;BME280;38483;42.620;25.394;2023-03-20T05:01:00;97302.53;;;5.37;81.10
52591;BME280;38483;42.620;25.394;2023-03-20T05:04:22;97301.94;;;5.24;80.20
52591;BME280;38483;42.620;25.394;2023-03-20T05:07:43;97290.25;;;5.10;81.52
52591;BME280;38483;42.620;25.394;2023-03-20T05:11:04;97288.13;;;5.31;81.65
52591;BME280;38483;42.620;25.394;2023-03-20T05:14:28;97288.94;;;5.33;82.95
52591;BME280;38483;42.620;25.394;2023-03-20T05:18:18;97288.34;;;5.59;82.51
52591;BME280;38483;42.620;25.394;2023-03-20T05:21:54;97279.59;;;6.04;80.85
52591;BME280;38483;42.620;25.394;2023-03-20T05:25:37;97290.19;;;6.59;80.11
52591;BME280;38483;42.620;25.394;2023-03-20T05:29:26;97293.66;;;6.58;77.77
52591;BME280;38483;42.620;25.394;2023-03-20T05:33:15;97289.78;;;6.75;77.50
52591;BME280;38483;42.620;25.394;2023-03-20T05:36:56;97280.69;;;6.94;77.05
52591;BME280;38483;42.620;25.394;2023-03-20T05:40:24;97290.47;;;7.12;76.01
52591;BME280;38483;42.620;25.394;2023-03-20T05:44:08;97289.75;;;7.07;76.58
52591;BME280;38483;42.620;25.394;2023-03-20T05:47:49;97293.16;;;7.09;76.72
52591;BME280;38483;42.620;25.394;2023-03-20T05:51:28;97296.81;;;7.29;75.70
52591;BME280;38483;42.620;25.394;2023-03-20T05:55:24;97295.19;;;7.56;75.12
52591;BME280;38483;42.620;25.394;2023-03-20T05:59:00;97290.94;;;7.83;74.48
52591;BME280;38483;42.620;25.394;2023-03-20T06:02:42;97285.06;;;8.05;73.34
52591;BME280;38483;42.620;25.394;2023-03-20T06:06:23;97287.38;;;8.41;71.89
52591;BME280;38483;42.620;25.394;2023-03-20T06:09:45;97290.31;;;8.55;70.93
52591;BME280;38483;42.620;25.394;2023-03-20T06:13:08;97284.94;;;8.85;70.65
52591;BME280;38483;42.620;25.394;2023-03-20T06:16:29;97287.50;;;9.10;69.63
52591;BME280;38483;42.620;25.394;2023-03-20T06:19:50;97287.28;;;9.16;69.15
52591;BME280;38483;42.620;25.394;2023-03-20T06:23:11;97291.66;;;9.37;68.86
52591;BME280;38483;42.620;25.394;2023-03-20T06:26:32;97288.50;;;9.52;67.79
52591;BME280;38483;42.620;25.394;2023-03-20T06:29:49;97286.47;;;9.60;67.97
52591;BME280;38483;42.620;25.394;2023-03-20T06:32:22;97289.19;;;9.57;67.87
52591;BME280;38483;42.620;25.394;2023-03-20T06:34:53;97293.63;;;9.75;67.76
52591;BME280;38483;42.620;25.394;2023-03-20T06:37:20;97290.59;;;9.64;68.55
52591;BME280;38483;42.620;25.394;2023-03-20T06:39:48;97279.03;;;9.74;68.42
52591;BME280;38483;42.620;25.394;2023-03-20T06:42:15;97284.25;;;10.18;67.65
52591;BME280;38483;42.620;25.394;2023-03-20T06:44:46;97268.38;;;10.04;67.10
52591;BME280;38483;42.620;25.394;2023-03-20T06:47:19;97289.72;;;10.52;66.68
52591;BME280;38483;42.620;25.394;2023-03-20T06:49:47;97278.31;;;10.56;66.55
52591;BME280;38483;42.620;25.394;2023-03-20T06:52:16;97280.25;;;10.51;66.35
52591;BME280;38483;42.620;25.394;2023-03-20T06:54:51;97278.97;;;10.61;66.08
52591;BME280;38483;42.620;25.394;2023-03-20T06:57:18;97283.09;;;10.85;65.80
52591;BME280;38483;42.620;25.394;2023-03-20T06:59:45;97285.50;;;10.90;64.52
52591;BME280;38483;42.620;25.394;2023-03-20T07:02:13;97280.38;;;11.08;64.19
52591;BME280;38483;42.620;25.394;2023-03-20T07:04:40;97285.06;;;11.00;64.10
52591;BME280;38483;42.620;25.394;2023-03-20T07:07:08;97275.22;;;11.07;64.15
52591;BME280;38483;42.620;25.394;2023-03-20T07:09:35;97286.91;;;11.35;63.10
52591;BME280;38483;42.620;25.394;2023-03-20T07:12:02;97239.03;;;11.05;63.00
52591;BME280;38483;42.620;25.394;2023-03-20T07:14:32;97279.75;;;11.22;63.89
52591;BME280;38483;42.620;25.394;2023-03-20T07:17:03;97276.41;;;11.38;63.10
52591;BME280;38483;42.620;25.394;2023-03-20T07:19:32;97273.69;;;11.41;63.79
52591;BME280;38483;42.620;25.394;2023-03-20T07:22:03;97239.06;;;11.42;62.98
52591;BME280;38483;42.620;25.394;2023-03-20T07:24:37;97250.34;;;11.41;62.67
52591;BME280;38483;42.620;25.394;2023-03-20T07:27:04;97269.84;;;11.69;63.16
52591;BME280;38483;42.620;25.394;2023-03-20T07:29:32;97273.84;;;11.76;62.21
52591;BME280;38483;42.620;25.394;2023-03-20T07:31:59;97269.31;;;11.98;61.80
52591;BME280;38483;42.620;25.394;2023-03-20T07:34:32;97256.22;;;12.01;61.31
52591;BME280;38483;42.620;25.394;2023-03-20T07:36:59;97254.50;;;12.00;62.02
52591;BME280;38483;42.620;25.394;2023-03-20T07:39:27;97266.91;;;12.12;61.58
52591;BME280;38483;42.620;25.394;2023-03-20T07:42:10;97261.41;;;12.01;61.34
52591;BME280;38483;42.620;25.394;2023-03-20T07:44:49;97221.25;;;11.54;61.79
52591;BME280;38483;42.620;25.394;2023-03-20T07:47:16;97257.53;;;12.09;61.83
52591;BME280;38483;42.620;25.394;2023-03-20T07:49:43;97262.66;;;12.28;61.55
52591;BME280;38483;42.620;25.394;2023-03-20T07:52:10;97264.56;;;12.42;61.06
52591;BME280;38483;42.620;25.394;2023-03-20T07:54:38;97267.69;;;12.65;60.35
52591;BME280;38483;42.620;25.394;2023-03-20T07:57:05;97271.22;;;12.64;59.78
52591;BME280;38483;42.620;25.394;2023-03-20T07:59:32;97274.72;;;12.97;58.98
52591;BME280;38483;42.620;25.394;2023-03-20T08:01:59;97257.91;;;12.87;59.12
52591;BME280;38483;42.620;25.394;2023-03-20T08:04:26;97266.44;;;13.06;58.97
52591;BME280;38483;42.620;25.394;2023-03-20T08:06:53;97266.41;;;13.24;57.84
52591;BME280;38483;42.620;25.394;2023-03-20T08:09:20;97266.97;;;13.13;57.72
52591;BME280;38483;42.620;25.394;2023-03-20T08:11:47;97267.38;;;12.88;58.70
52591;BME280;38483;42.620;25.394;2023-03-20T08:14:14;97258.50;;;12.92;58.96
52591;BME280;38483;42.620;25.394;2023-03-20T08:16:41;97257.59;;;12.93;58.28
52591;BME280;38483;42.620;25.394;2023-03-20T08:19:08;97242.09;;;13.25;57.80
52591;BME280;38483;42.620;25.394;2023-03-20T08:21:35;97252.00;;;13.18;57.73
52591;BME280;38483;42.620;25.394;2023-03-20T08:24:02;97255.44;;;13.19;57.61
52591;BME280;38483;42.620;25.394;2023-03-20T08:26:29;97247.22;;;13.42;56.38
52591;BME280;38483;42.620;25.394;2023-03-20T08:28:56;97250.19;;;13.51;55.88
52591;BME280;38483;42.620;25.394;2023-03-20T08:31:24;97229.09;;;13.40;55.56
52591;BME280;38483;42.620;25.394;2023-03-20T08:33:51;97254.97;;;13.90;54.86
52591;BME280;38483;42.620;25.394;2023-03-20T08:36:18;97233.22;;;13.91;53.95
52591;BME280;38483;42.620;25.394;2023-03-20T08:38:47;97242.91;;;14.34;53.09
52591;BME280;38483;42.620;25.394;2023-03-20T08:41:16;97227.47;;;14.31;52.71
52591;BME280;38483;42.620;25.394;2023-03-20T08:43:43;97245.72;;;14.61;52.01
52591;BME280;38483;42.620;25.394;2023-03-20T08:46:10;97241.31;;;14.61;52.21
52591;BME280;38483;42.620;25.394;2023-03-20T08:48:37;97236.19;;;14.60;52.21
52591;BME280;38483;42.620;25.394;2023-03-20T08:51:04;97237.78;;;14.62;52.12
52591;BME280;38483;42.620;25.394;2023-03-20T08:53:31;97227.53;;;14.59;51.92
52591;BME280;38483;42.620;25.394;2023-03-20T08:55:59;97219.72;;;14.59;52.51
52591;BME280;38483;42.620;25.394;2023-03-20T08:58:26;97223.84;;;14.78;51.70
52591;BME280;38483;42.620;25.394;2023-03-20T09:00:54;97222.56;;;14.85;51.47
52591;BME280;38483;42.620;25.394;2023-03-20T09:03:21;97220.63;;;15.16;51.11
52591;BME280;38483;42.620;25.394;2023-03-20T09:05:49;97212.31;;;15.38;50.33
52591;BME280;38483;42.620;25.394;2023-03-20T09:08:18;97211.44;;;15.37;49.89
52591;BME280;38483;42.620;25.394;2023-03-20T09:10:46;97225.53;;;15.21;50.04
52591;BME280;38483;42.620;25.394;2023-03-20T09:13:13;97220.53;;;15.04;50.23
52591;BME280;38483;42.620;25.394;2023-03-20T09:15:53;97224.25;;;15.28;50.24
52591;BME280;38483;42.620;25.394;2023-03-20T09:18:21;97219.94;;;15.41;50.07
52591;BME280;38483;42.620;25.394;2023-03-20T09:20:49;97219.25;;;15.80;49.43
52591;BME280;38483;42.620;25.394;2023-03-20T09:23:16;97216.53;;;15.81;49.25
52591;BME280;38483;42.620;25.394;2023-03-20T09:25:44;97206.88;;;15.69;49.19
52591;BME280;38483;42.620;25.394;2023-03-20T09:28:10;97214.66;;;15.83;48.74
52591;BME280;38483;42.620;25.394;2023-03-20T09:30:38;97205.97;;;15.97;48.56
52591;BME280;38483;42.620;25.394;2023-03-20T09:33:05;97204.56;;;15.91;48.10
52591;BME280;38483;42.620;25.394;2023-03-20T09:35:32;97210.56;;;16.06;47.97
52591;BME280;38483;42.620;25.394;2023-03-20T09:37:59;97207.47;;;16.13;48.28
52591;BME280;38483;42.620;25.394;2023-03-20T09:40:30;97215.00;;;16.18;47.83
52591;BME280;38483;42.620;25.394;2023-03-20T09:48:51;97193.19;;;16.32;47.59
52591;BME280;38483;42.620;25.394;2023-03-20T09:51:45;97193.16;;;16.19;47.82
52591;BME280;38483;42.620;25.394;2023-03-20T09:54:35;97190.13;;;16.12;47.84
52591;BME280;38483;42.620;25.394;2023-03-20T09:57:26;97183.25;;;16.37;47.58
52591;BME280;38483;42.620;25.394;2023-03-20T09:59:57;97190.66;;;16.57;47.80
52591;BME280;38483;42.620;25.394;2023-03-20T10:02:40;97144.47;;;16.30;47.71
52591;BME280;38483;42.620;25.394;2023-03-20T10:05:24;97183.75;;;16.68;47.80
52591;BME280;38483;42.620;25.394;2023-03-20T10:08:02;97181.75;;;16.20;48.57
52591;BME280;38483;42.620;25.394;2023-03-20T10:10:45;97157.47;;;16.05;48.62
52591;BME280;38483;42.620;25.394;2023-03-20T10:16:06;97178.19;;;16.08;49.05
52591;BME280;38483;42.620;25.394;2023-03-20T10:18:43;97171.38;;;16.45;48.22
52591;BME280;38483;42.620;25.394;2023-03-20T10:21:20;97142.53;;;16.72;47.09
52591;BME280;38483;42.620;25.394;2023-03-20T10:24:03;97173.72;;;17.00;46.22
52591;BME280;38483;42.620;25.394;2023-03-20T10:26:34;97165.75;;;17.14;45.54
52591;BME280;38483;42.620;25.394;2023-03-20T10:29:18;97166.06;;;17.09;47.12
52591;BME280;38483;42.620;25.394;2023-03-20T10:32:11;97154.41;;;17.26;47.21
52591;BME280;38483;42.620;25.394;2023-03-20T10:40:51;97146.56;;;17.62;46.71
52591;BME280;38483;42.620;25.394;2023-03-20T10:43:23;97128.44;;;17.23;47.59
52591;BME280;38483;42.620;25.394;2023-03-20T10:45:59;97141.06;;;17.42;46.68
52591;BME280;38483;42.620;25.394;2023-03-20T10:48:35;97137.84;;;17.51;46.20
52591;BME280;38483;42.620;25.394;2023-03-20T10:51:04;97106.50;;;17.73;46.13
52591;BME280;38483;42.620;25.394;2023-03-20T10:53:45;97101.34;;;17.60;45.72
52591;BME280;38483;42.620;25.394;2023-03-20T10:56:19;97115.94;;;17.75;45.19
52591;BME280;38483;42.620;25.394;2023-03-20T10:58:56;97112.53;;;18.21;44.26
52591;BME280;38483;42.620;25.394;2023-03-20T11:01:26;97104.47;;;18.35;44.06
52591;BME280;38483;42.620;25.394;2023-03-20T11:03:53;97108.84;;;18.23;44.57
52591;BME280;38483;42.620;25.394;2023-03-20T11:06:26;97094.75;;;18.48;44.79
52591;BME280;38483;42.620;25.394;2023-03-20T11:08:54;97092.84;;;18.50;44.64
52591;BME280;38483;42.620;25.394;2023-03-20T11:11:24;97085.91;;;18.49;44.31
52591;BME280;38483;42.620;25.394;2023-03-20T11:13:51;97083.41;;;18.47;42.94
52591;BME280;38483;42.620;25.394;2023-03-20T11:16:24;97081.41;;;18.62;43.76
52591;BME280;38483;42.620;25.394;2023-03-20T11:18:53;97043.47;;;18.55;44.02
52591;BME280;38483;42.620;25.394;2023-03-20T11:21:24;97054.44;;;18.49;42.47
52591;BME280;38483;42.620;25.394;2023-03-20T11:23:52;97059.47;;;18.74;41.81
52591;BME280;38483;42.620;25.394;2023-03-20T11:26:39;97050.19;;;18.81;41.15
52591;BME280;38483;42.620;25.394;2023-03-20T11:29:20;97048.47;;;19.02;42.29
52591;BME280;38483;42.620;25.394;2023-03-20T11:31:49;97056.16;;;18.83;42.79
52591;BME280;38483;42.620;25.394;2023-03-20T11:34:21;97055.41;;;19.03;42.63
52591;BME280;38483;42.620;25.394;2023-03-20T11:36:59;97055.88;;;18.86;42.09
52591;BME280;38483;42.620;25.394;2023-03-20T11:39:36;97018.56;;;18.72;41.22
52591;BME280;38483;42.620;25.394;2023-03-20T11:42:21;97042.28;;;18.92;40.72
52591;BME280;38483;42.620;25.394;2023-03-20T11:44:59;97039.66;;;18.92;40.61
52591;BME280;38483;42.620;25.394;2023-03-20T11:47:31;97038.22;;;18.88;40.47
52591;BME280;38483;42.620;25.394;2023-03-20T11:50:02;97029.84;;;19.16;40.44
52591;BME280;38483;42.620;25.394;2023-03-20T11:52:32;97011.34;;;19.07;40.75
52591;BME280;38483;42.620;25.394;2023-03-20T11:55:04;96985.47;;;19.02;40.67
52591;BME280;38483;42.620;25.394;2023-03-20T12:02:41;97010.06;;;19.12;40.15
52591;BME280;38483;42.620;25.394;2023-03-20T12:05:27;97008.31;;;19.33;38.85
52591;BME280;38483;42.620;25.394;2023-03-20T12:07:59;97012.69;;;19.55;39.17
52591;BME280;38483;42.620;25.394;2023-03-20T12:10:33;97004.03;;;19.64;38.37
52591;BME280;38483;42.620;25.394;2023-03-20T12:13:13;97002.00;;;19.68;37.76
52591;BME280;38483;42.620;25.394;2023-03-20T12:15:49;97004.66;;;19.57;37.72
52591;BME280;38483;42.620;25.394;2023-03-20T12:18:35;96996.28;;;19.63;37.87
52591;BME280;38483;42.620;25.394;2023-03-20T12:21:28;97004.31;;;19.82;38.13
52591;BME280;38483;42.620;25.394;2023-03-20T12:24:26;96998.97;;;19.93;37.89
52591;BME280;38483;42.620;25.394;2023-03-20T12:27:19;96979.50;;;19.75;38.48
52591;BME280;38483;42.620;25.394;2023-03-20T12:30:09;96982.06;;;19.86;37.89
52591;BME280;38483;42.620;25.394;2023-03-20T12:35:42;96979.44;;;19.65;38.33
52591;BME280;38483;42.620;25.394;2023-03-20T12:38:39;96973.53;;;19.73;37.90
52591;BME280;38483;42.620;25.394;2023-03-20T12:41:11;96972.50;;;19.85;38.52
52591;BME280;38483;42.620;25.394;2023-03-20T12:52:42;96972.59;;;19.74;39.56
52591;BME280;38483;42.620;25.394;2023-03-20T13:02:08;96969.13;;;19.94;39.10
52591;BME280;38483;42.620;25.394;2023-03-20T13:07:17;96947.75;;;19.87;38.63
52591;BME280;38483;42.620;25.394;2023-03-20T13:10:16;96965.22;;;19.88;39.94
52591;BME280;38483;42.620;25.394;2023-03-20T13:16:08;96952.88;;;19.89;39.55
52591;BME280;38483;42.620;25.394;2023-03-20T13:29:44;96952.97;;;19.78;40.30
52591;BME280;38483;42.620;25.394;2023-03-20T13:32:30;96955.84;;;19.75;40.14
52591;BME280;38483;42.620;25.394;2023-03-20T13:37:41;96956.13;;;19.72;39.88
52591;BME280;38483;42.620;25.394;2023-03-20T13:40:18;96954.63;;;19.79;40.78
52591;BME280;38483;42.620;25.394;2023-03-20T13:43:00;96952.84;;;19.79;42.74
52591;BME280;38483;42.620;25.394;2023-03-20T13:45:36;96964.75;;;19.63;43.67
52591;BME280;38483;42.620;25.394;2023-03-20T14:05:15;96939.75;;;19.47;45.55
52591;BME280;38483;42.620;25.394;2023-03-20T14:07:45;96939.94;;;19.35;45.13
52591;BME280;38483;42.620;25.394;2023-03-20T14:15:18;96930.16;;;19.26;46.06
52591;BME280;38483;42.620;25.394;2023-03-20T14:17:47;96930.72;;;19.29;45.77
52591;BME280;38483;42.620;25.394;2023-03-20T14:20:34;96941.41;;;19.17;46.07
52591;BME280;38483;42.620;25.394;2023-03-20T14:23:04;96929.81;;;19.19;45.64
52591;BME280;38483;42.620;25.394;2023-03-20T14:25:39;96936.81;;;18.98;45.16
52591;BME280;38483;42.620;25.394;2023-03-20T14:30:47;96924.31;;;19.22;43.78
52591;BME280;38483;42.620;25.394;2023-03-20T14:35:50;96926.69;;;19.36;43.61
52591;BME280;38483;42.620;25.394;2023-03-20T14:41:41;96921.00;;;19.20;43.61
52591;BME280;38483;42.620;25.394;2023-03-20T14:44:30;96912.00;;;19.23;43.23
52591;BME280;38483;42.620;25.394;2023-03-20T14:47:09;96904.13;;;19.23;43.13
52591;BME280;38483;42.620;25.394;2023-03-20T14:49:50;96918.41;;;19.09;43.27
52591;BME280;38483;42.620;25.394;2023-03-20T14:54:53;96918.28;;;18.68;44.28
52591;BME280;38483;42.620;25.394;2023-03-20T14:57:31;96917.56;;;18.77;44.06
52591;BME280;38483;42.620;25.394;2023-03-20T15:00:17;96913.16;;;18.66;44.82
52591;BME280;38483;42.620;25.394;2023-03-20T15:02:47;96914.03;;;18.56;45.02
52591;BME280;38483;42.620;25.394;2023-03-20T15:05:27;96902.94;;;18.52;45.38
52591;BME280;38483;42.620;25.394;2023-03-20T15:08:22;96915.66;;;18.57;45.10
52591;BME280;38483;42.620;25.394;2023-03-20T15:10:54;96905.44;;;18.54;45.33
52591;BME280;38483;42.620;25.394;2023-03-20T15:13:23;96922.69;;;18.34;45.63
52591;BME280;38483;42.620;25.394;2023-03-20T15:18:25;96920.59;;;18.50;45.67
52591;BME280;38483;42.620;25.394;2023-03-20T15:20:56;96914.25;;;18.53;45.66
52591;BME280;38483;42.620;25.394;2023-03-20T15:23:23;96918.66;;;18.41;45.47
52591;BME280;38483;42.620;25.394;2023-03-20T15:25:52;96901.13;;;18.20;45.87
52591;BME280;38483;42.620;25.394;2023-03-20T15:28:26;96917.84;;;18.19;45.88
52591;BME280;38483;42.620;25.394;2023-03-20T15:30:57;96865.91;;;17.91;46.10
52591;BME280;38483;42.620;25.394;2023-03-20T15:33:32;96913.56;;;18.07;46.90
52591;BME280;38483;42.620;25.394;2023-03-20T15:36:08;96902.00;;;17.98;47.66
52591;BME280;38483;42.620;25.394;2023-03-20T15:38:35;96911.03;;;17.94;47.33
52591;BME280;38483;42.620;25.394;2023-03-20T15:41:07;96914.84;;;17.90;47.84
52591;BME280;38483;42.620;25.394;2023-03-20T15:43:49;96915.44;;;17.94;47.52
52591;BME280;38483;42.620;25.394;2023-03-20T15:46:16;96882.09;;;17.73;47.41
52591;BME280;38483;42.620;25.394;2023-03-20T15:48:48;96916.75;;;17.99;47.18
52591;BME280;38483;42.620;25.394;2023-03-20T15:51:17;96917.13;;;17.95;46.76
52591;BME280;38483;42.620;25.394;2023-03-20T15:53:46;96920.81;;;18.03;46.70
52591;BME280;38483;42.620;25.394;2023-03-20T15:56:16;96918.88;;;17.83;46.99
52591;BME280;38483;42.620;25.394;2023-03-20T15:58:47;96917.31;;;17.69;46.70
52591;BME280;38483;42.620;25.394;2023-03-20T16:01:18;96918.72;;;17.62;46.88
52591;BME280;38483;42.620;25.394;2023-03-20T16:03:46;96923.75;;;17.65;46.59
52591;BME280;38483;42.620;25.394;2023-03-20T16:06:18;96925.91;;;17.71;46.58
52591;BME280;38483;42.620;25.394;2023-03-20T16:08:58;96953.28;;;17.67;46.98
52591;BME280;38483;42.620;25.394;2023-03-20T16:11:34;96948.97;;;17.55;47.37
52591;BME280;38483;42.620;25.394;2023-03-20T16:14:02;96948.94;;;17.32;48.85
52591;BME280;38483;42.620;25.394;2023-03-20T16:16:31;96955.97;;;17.31;48.26
52591;BME280;38483;42.620;25.394;2023-03-20T16:19:09;96926.09;;;16.99;48.78
52591;BME280;38483;42.620;25.394;2023-03-20T16:21:39;96945.69;;;17.17;48.53
52591;BME280;38483;42.620;25.394;2023-03-20T16:24:16;96969.19;;;17.06;49.28
52591;BME280;38483;42.620;25.394;2023-03-20T16:26:48;96949.34;;;16.67;50.95
52591;BME280;38483;42.620;25.394;2023-03-20T16:29:16;96972.88;;;16.67;51.61
52591;BME280;38483;42.620;25.394;2023-03-20T16:32:01;96972.94;;;16.55;52.22
52591;BME280;38483;42.620;25.394;2023-03-20T16:34:33;96971.84;;;16.45;53.18
52591;BME280;38483;42.620;25.394;2023-03-20T16:37:20;96955.56;;;16.28;52.92
52591;BME280;38483;42.620;25.394;2023-03-20T16:42:30;96959.56;;;16.21;53.05
52591;BME280;38483;42.620;25.394;2023-03-20T16:44:58;96949.94;;;16.09;53.29
52591;BME280;38483;42.620;25.394;2023-03-20T16:47:51;96978.28;;;16.15;53.57
52591;BME280;38483;42.620;25.394;2023-03-20T16:50:42;96980.66;;;16.06;54.11
52591;BME280;38483;42.620;25.394;2023-03-20T16:53:13;96984.00;;;15.95;54.39
52591;BME280;38483;42.620;25.394;2023-03-20T16:55:43;96983.81;;;15.86;54.74
52591;BME280;38483;42.620;25.394;2023-03-20T16:58:17;96986.72;;;15.81;54.98
52591;BME280;38483;42.620;25.394;2023-03-20T17:03:55;96990.91;;;15.71;55.44
52591;BME280;38483;42.620;25.394;2023-03-20T17:11:30;96995.56;;;15.54;55.78
52591;BME280;38483;42.620;25.394;2023-03-20T17:13:58;96995.25;;;15.45;55.97
52591;BME280;38483;42.620;25.394;2023-03-20T17:16:26;96987.97;;;15.36;56.14
52591;BME280;38483;42.620;25.394;2023-03-20T17:19:09;96993.31;;;15.35;56.12
52591;BME280;38483;42.620;25.394;2023-03-20T17:21:36;96994.00;;;15.51;55.91
52591;BME280;38483;42.620;25.394;2023-03-20T17:24:04;97007.38;;;15.59;55.47
52591;BME280;38483;42.620;25.394;2023-03-20T17:26:31;97008.19;;;15.47;56.22